Photo de Laille
Rennes
couvert
Metar : 2018/10/16 04:30 LFRN 160430Z AUTO 15004KT 6000 FEW007 OVC018 14/13 Q1014 TEMPO 0500 FG BKN002
Couverture nuageuse : Few Clouds 700 ft Overcast 1800 ft
Pression de 29.94 inHg (1014 hPa)
Humidité : 94%
Température : 57°F (14°C)
Vent de SSE at 5 mph (7 km/h)
Visibilité : 4 miles (6 km)
Nantes
Brume, couvert
Metar : 2018/10/16 04:30 LFRS 160430Z AUTO 19004KT 3700 BR OVC003 14/13 Q1014 BECMG 9999 NSW BKN025
Couverture nuageuse : Overcast 300 ft
Traduc : Partly cloudy 700 ft
Pression de 29.94 inHg (1014 hPa)
Humidité : 94%
Température : 57°F (14°C)
Point de rosée : 55°F (13°C)
Vent de S at 5 mph (7 km/h)
Visibilité : 2 miles (4 km)
Lannion
couvert
Metar : 2018/10/16 04:30 LFRO 160430Z AUTO 24003KT 7000 BKN004 OVC008 13/13 Q1014
Couverture nuageuse : Mostly Cloudy 400 ft Overcast 800 ft
Traduc : Partly cloudy 700 ft
Pression de 29.94 inHg (1014 hPa)
Humidité : 100%
Température : 55°F (13°C)
Point de rosée : 55°F (13°C)
Vent de WSW at 3 mph (6 km/h)
Visibilité : 4 miles (7 km)
Dinard
Brume, couvert
Metar : 2018/10/16 04:30 LFRD 160430Z AUTO 17004KT 3800 BR SCT001 OVC011 13/13 Q1014 TEMPO 0500 FG VV///
Couverture nuageuse : Partly Cloudy 100 ft Overcast 1100 ft
Traduc : Partly cloudy 700 ft
Pression de 29.94 inHg (1014 hPa)
Humidité : 100%
Température : 55°F (13°C)
Point de rosée : 55°F (13°C)
Vent de S at 5 mph (7 km/h)
Visibilité : 2 miles (4 km)
Brest
Brume, couvert
Metar : 2018/10/16 04:30 LFRB 160430Z AUTO 00000KT 4500 BR OVC006 12/11 Q1015 TEMPO 0600 FG VV///
Couverture nuageuse : Overcast 600 ft
Traduc : Partly cloudy 700 ft
Pression de 29.97 inHg (1015 hPa)
Humidité : 94%
Température : 54°F (12°C)
Point de rosée : 52°F (11°C)
Vent de calm
Visibilité : 3 miles (5 km)
Quimper
couvert
Metar : 2018/10/16 04:30 LFRQ 160430Z AUTO VRB02KT 9999 OVC009 12/12 Q1015
Couverture nuageuse : Overcast 900 ft
Traduc : Partly cloudy 700 ft
Pression de 29.97 inHg (1015 hPa)
Humidité : 100%
Température : 54°F (12°C)
Point de rosée : 54°F (12°C)
Vent de varies at 2 mph (4 km/h)
Visibilité : 6 miles (10 km)
St Nazaire
couvert
Metar : 2018/10/16 04:30 LFRZ 160430Z AUTO VRB02KT 9999 OVC020 15/14 Q1014 TEMPO 3000 BR BKN006
Couverture nuageuse : Overcast 2000 ft
Traduc : Partly cloudy 700 ft
Pression de 29.94 inHg (1014 hPa)
Humidité : 94%
Température : 59°F (15°C)
Point de rosée : 57°F (14°C)
Vent de varies at 2 mph (4 km/h)
Visibilité : 6 miles (10 km)
St Brieuc

Metar : 2018/10/15 21:00 LFRT 152100Z AUTO 00000KT 4000 0500 BCFG FEW028 13/12 Q1013
Couverture nuageuse :
Traduc : Partly cloudy 700 ft
Pression de
Humidité :
Température :
Point de rosée :
Vent de calm
Visibilité : 2 miles (4 km)
Lorient
Brume, couvert
Metar : 2018/10/16 04:30 LFRH 160430Z AUTO 00000KT 1200 R25/0900U R07/1400N BR FEW003 OVC013 09/09 Q1014 BECMG 9999 NSW BKN004 OVC010
Couverture nuageuse : Few Clouds 300 ft Overcast 1300 ft
Traduc : Partly cloudy 700 ft
Pression de 29.94 inHg (1014 hPa)
Humidité : 100%
Température : 48°F (9°C)
Point de rosée : 48°F (9°C)
Vent de calm
Visibilité : 1 mile (1 km)
Vannes-Meucon
Brume, couvert
Metar : 2018/10/16 04:30 LFRV 160430Z AUTO 03001KT 5000 BR OVC043 13/13 Q1014
Couverture nuageuse : Overcast 4300 ft
Traduc : Partly cloudy 700 ft
Pression de 29.94 inHg (1014 hPa)
Humidité : 100%
Température : 55°F (13°C)
Point de rosée : 55°F (13°C)
Vent de NNE at 1 mph (2 km/h)
Visibilité : 3 miles (5 km)

 


   Weather Underground PWS IBRETAGN39      Weather Underground PWS IBRETAGN39Retour Météo-Laillé adhérent de Météo-Bretagne et d'Infoclimat. Données mises à jour en temps réel via Météolink Climatologie réalisée sous Wswin et GraphWeather.

Affichage prévisions météo de WeatherUnderground via script PHP de Saratoga.

Copyright 2012-2018